Gurn Spring, New York
Current Conditions -  °F | °C
As of 11:24 AM on Friday 24 Oct 2014 (Local Time) from KGFL Reporting Station
Overcast Overcast  
Wind Chill:   Ceiling: 2200
Heat Index:   Visibility: 10mi
Dew Point:   Wind: 3mph
Humidity: 93%   Direction: 130°SE
Pressure: 29.85"   Gusts: NA
Location:  43.1979°N, 73.6839°W
Report Text: KGFL 241524Z AUTO 13003KT 10SM FEW004 SCT016 OVC022 07/06 A2985 RMK AO2 T00720061
Loading
Personal Weather Stations






























Interactive Weather Map
Tropical Storm Tracking
New forecast layout! Learn more

10-Day Weather Forecast

Advertisements
Track Severe Weather on mobile